首页
METAR-TAF:

METAR-TAF

机场 :

迈索尔, 印度

纬度: 12-13-48N, 经度: 76-39-21E, 海拔: 715米

当前天气观测

该预报发布于12小时和33分钟前的13:30 UTC
风速8节,风向西转西南
温度 25°C
湿度 74%
气压 1010 hPa
能見度: 6000
散云层高于1500英尺
散云层高于8000英尺

METAR: VOMY 211330Z 25008KT 6000 SCT015 SCT080 25/20 Q1010

时间: 07:33 (02:03 UTC)

预报

该预报发布于3小时和3分钟前的23:00 UTC
预报有效从22日的 00点(UTC)到 22日的 09点(UTC)
风速10节,风向西
能見度: 6000
散云层高于1200英尺
散云层高于8000英尺
短暂存在
从 22日的 00点(UTC)到 22日的 03点(UTC)

TAF: VOMY 212300Z 2200/2209 27010KT 6000 SCT012 SCT080 TEMPO 2200/2203 50

超过4000个机场的气象观测和天气预报(METAR&TAF报告)。

可查询的气象台以黄色和红色小点在地图上表示。

将鼠标移到小点上方,可查看气象台名称。

然后点击查看天气观测和预报。

如需切换地图:点击带黑十字的绿色按钮放大地图;点击带横线的绿色按钮缩小地图;或者点击绿色箭头查看邻近地区的地图。


METAR-TAF: